createdAt,value
2017-09-09T11:31:36.658Z,993.42
2017-09-09T11:32:45.964Z,993.37
2017-09-09T11:33:55.266Z,993.35
2017-09-09T11:35:04.621Z,993.37
2017-09-09T11:36:13.278Z,993.41
2017-09-09T11:37:21.930Z,993.42
2017-09-09T11:38:30.592Z,993.35
2017-09-09T11:39:39.897Z,993.37
2017-09-09T11:40:48.593Z,993.38
2017-09-09T11:41:57.599Z,993.35
2017-09-09T11:43:06.264Z,993.34
2017-09-09T11:44:15.556Z,993.3
2017-09-09T11:45:24.868Z,993.32
2017-09-09T11:46:33.538Z,993.3
2017-09-09T11:47:42.846Z,993.34
2017-09-09T11:48:52.196Z,993.3
2017-09-09T11:50:01.168Z,993.3
2017-09-09T11:51:10.469Z,993.31
2017-09-09T11:52:19.764Z,993.33
2017-09-09T11:53:28.737Z,993.36
2017-09-09T11:54:38.027Z,993.35
2017-09-09T11:55:46.691Z,993.36
2017-09-09T11:56:55.656Z,993.39
2017-09-09T11:58:04.629Z,993.41
2017-09-09T11:59:13.297Z,993.47
2017-09-09T12:00:21.967Z,993.43
2017-09-09T12:01:30.948Z,993.48
2017-09-09T12:02:39.942Z,993.52
2017-09-09T12:03:49.238Z,993.55
2017-09-09T12:04:57.904Z,993.53
2017-09-09T12:06:06.569Z,993.5
2017-09-09T12:07:15.546Z,993.51
2017-09-09T12:08:24.524Z,993.56
2017-09-09T12:09:33.803Z,993.51
2017-09-09T12:10:42.771Z,993.52
2017-09-09T12:11:52.066Z,993.52
2017-09-09T12:13:01.054Z,993.54
2017-09-09T12:14:10.339Z,993.58
2017-09-09T12:15:19.631Z,993.6
2017-09-09T12:16:28.924Z,993.58
2017-09-09T12:17:38.902Z,993.58
2017-09-09T12:18:47.576Z,993.61
2017-09-09T12:19:56.231Z,993.64
2017-09-09T12:21:05.195Z,993.67
2017-09-09T12:22:14.159Z,993.71
2017-09-09T12:23:23.140Z,993.72
2017-09-09T12:24:32.504Z,993.7
2017-09-09T12:25:41.160Z,993.74
2017-09-09T12:26:50.766Z,993.71
2017-09-09T12:27:59.745Z,993.7
2017-09-09T12:29:08.708Z,993.75
2017-09-09T12:30:17.695Z,993.78
2017-09-09T12:31:26.364Z,993.8
2017-09-09T12:32:35.333Z,993.79
2017-09-09T12:33:44.629Z,993.8
2017-09-09T12:34:53.935Z,993.81
2017-09-09T12:36:02.893Z,993.87
2017-09-09T12:37:11.573Z,993.91
2017-09-09T12:38:20.570Z,993.94
2017-09-09T12:39:29.567Z,993.93
2017-09-09T12:40:38.871Z,993.98
2017-09-09T12:41:47.554Z,994.03
2017-09-09T12:42:56.543Z,994.05
2017-09-09T12:44:05.229Z,994.09
2017-09-09T12:45:14.199Z,994.07
2017-09-09T12:46:23.214Z,994.07
2017-09-09T12:47:32.181Z,994.03
2017-09-09T12:48:41.157Z,994.02
2017-09-09T12:49:49.858Z,994.01
2017-09-09T12:50:58.538Z,993.98
2017-09-09T12:52:07.506Z,993.96
2017-09-09T12:53:16.484Z,993.96
2017-09-09T12:54:25.466Z,994.01
2017-09-09T12:55:34.751Z,993.96
2017-09-09T12:56:44.065Z,994
2017-09-09T12:57:53.994Z,994
2017-09-09T12:59:02.968Z,993.97
2017-09-09T13:00:12.257Z,993.96
2017-09-09T13:01:20.908Z,993.91
2017-09-09T13:02:29.902Z,993.92
2017-09-09T13:03:38.559Z,993.92
2017-09-09T13:04:47.218Z,993.89
2017-09-09T13:05:55.897Z,993.88
2017-09-09T13:07:04.612Z,993.91
2017-09-09T13:08:13.910Z,993.92
2017-09-09T13:09:22.593Z,993.92
2017-09-09T13:10:31.886Z,993.95
2017-09-09T13:11:40.531Z,993.96
2017-09-09T13:12:49.809Z,993.9
2017-09-09T13:13:59.107Z,993.91
2017-09-09T13:15:08.075Z,993.94
2017-09-09T13:16:16.741Z,993.97
2017-09-09T13:17:25.395Z,993.92
2017-09-09T13:18:34.060Z,993.94
2017-09-09T13:19:42.719Z,993.92
2017-09-09T13:20:51.999Z,993.92
2017-09-09T13:22:00.653Z,993.91
2017-09-09T13:23:09.617Z,993.91
2017-09-09T13:24:18.271Z,993.87
2017-09-09T13:25:26.963Z,993.9
2017-09-09T13:26:36.248Z,993.9
2017-09-09T13:27:45.238Z,993.93
2017-09-09T13:28:53.919Z,993.97
2017-09-09T13:30:02.673Z,994.03
2017-09-09T13:31:12.587Z,994.04
2017-09-09T13:32:21.248Z,994.09
2017-09-09T13:33:30.532Z,994.09
2017-09-09T13:34:39.805Z,994.09
2017-09-09T13:35:48.759Z,994.11
2017-09-09T13:36:58.049Z,994.11
2017-09-09T13:38:06.708Z,994.15
2017-09-09T13:39:16.010Z,994.12
2017-09-09T13:40:25.318Z,994.15
2017-09-09T13:41:34.291Z,994.14
2017-09-09T13:42:43.261Z,994.14
2017-09-09T13:43:52.557Z,994.09
2017-09-09T13:45:01.532Z,994.12
2017-09-09T13:46:10.251Z,994.11
2017-09-09T13:47:19.230Z,994.09
2017-09-09T13:48:27.886Z,994.06
2017-09-09T13:49:36.937Z,994.07
2017-09-09T13:50:45.927Z,994.05
2017-09-09T13:51:54.629Z,994.02
2017-09-09T13:53:03.601Z,994.02
2017-09-09T13:54:12.897Z,994
2017-09-09T13:55:21.888Z,994
2017-09-09T13:56:30.863Z,994.03
2017-09-09T13:57:39.822Z,994.03
2017-09-09T13:58:48.502Z,993.98
2017-09-09T13:59:57.784Z,993.97
2017-09-09T14:01:06.763Z,993.96
2017-09-09T14:02:15.748Z,993.97
2017-09-09T14:03:25.025Z,993.97
2017-09-09T14:04:33.666Z,993.97
2017-09-09T14:05:42.950Z,994
2017-09-09T14:06:51.617Z,993.94
2017-09-09T14:08:00.907Z,993.91
2017-09-09T14:09:09.572Z,993.87
2017-09-09T14:10:18.847Z,993.9
2017-09-09T14:11:27.507Z,993.84
2017-09-09T14:12:36.481Z,993.93
2017-09-09T14:13:45.134Z,993.96
2017-09-09T14:14:54.138Z,994.04
2017-09-09T14:16:03.780Z,994.07
2017-09-09T14:17:12.753Z,994.07
2017-09-09T14:18:22.026Z,994.14
2017-09-09T14:19:31.620Z,994.14
2017-09-09T14:20:40.293Z,994.13
2017-09-09T14:21:50.550Z,994.09
2017-09-09T14:22:59.842Z,994.08
2017-09-09T14:24:08.816Z,994.09
2017-09-09T14:25:18.107Z,994.11
2017-09-09T14:26:27.708Z,994.16
2017-09-09T14:27:36.370Z,994.2
2017-09-09T14:28:45.638Z,994.24
2017-09-09T14:29:54.921Z,994.22
2017-09-09T14:31:03.886Z,994.18
2017-09-09T14:32:12.852Z,994.21
2017-09-09T14:33:21.815Z,994.19
2017-09-09T14:34:30.832Z,994.2
2017-09-09T14:35:40.108Z,994.23
2017-09-09T14:36:49.408Z,994.24
2017-09-09T14:37:58.694Z,994.26
2017-09-09T14:39:08.310Z,994.22
2017-09-09T14:40:17.591Z,994.25
2017-09-09T14:41:26.572Z,994.28
2017-09-09T14:42:35.853Z,994.24
2017-09-09T14:43:44.814Z,994.27
2017-09-09T14:44:54.426Z,994.22
2017-09-09T14:46:03.400Z,994.23
2017-09-09T14:47:12.996Z,994.26
2017-09-09T14:48:21.973Z,994.26
2017-09-09T14:49:30.947Z,994.29
2017-09-09T14:50:39.933Z,994.3
2017-09-09T14:51:49.230Z,994.29
2017-09-09T14:52:58.526Z,994.25
2017-09-09T14:54:07.819Z,994.22
2017-09-09T14:55:16.478Z,994.27
2017-09-09T14:56:25.141Z,994.24
2017-09-09T14:57:33.883Z,994.27
2017-09-09T14:58:43.172Z,994.28
2017-09-09T14:59:52.172Z,994.28
2017-09-09T15:01:01.783Z,994.23
2017-09-09T15:02:10.758Z,994.21
2017-09-09T15:03:20.359Z,994.18
2017-09-09T15:04:29.645Z,994.19
2017-09-09T15:05:38.304Z,994.19
2017-09-09T15:06:47.591Z,994.18
2017-09-09T15:07:56.560Z,994.14
2017-09-09T15:09:05.858Z,994.14
2017-09-09T15:10:14.836Z,994.1
2017-09-09T15:11:24.121Z,994.15
2017-09-09T15:12:33.128Z,994.16
2017-09-09T15:13:42.136Z,994.2
2017-09-09T15:14:50.797Z,994.23
2017-09-09T15:16:00.097Z,994.22
2017-09-09T15:17:09.461Z,994.21
2017-09-09T15:18:18.464Z,994.22
2017-09-09T15:19:28.072Z,994.26
2017-09-09T15:20:36.745Z,994.29
2017-09-09T15:21:45.763Z,994.37
2017-09-09T15:22:54.721Z,994.33
2017-09-09T15:24:03.400Z,994.37
2017-09-09T15:25:12.074Z,994.39
2017-09-09T15:26:21.077Z,994.39
2017-09-09T15:27:30.080Z,994.4
2017-09-09T15:28:39.377Z,994.35
2017-09-09T15:29:48.053Z,994.37
2017-09-09T15:30:57.017Z,994.4
2017-09-09T15:32:05.675Z,994.41
2017-09-09T15:33:14.969Z,994.42
2017-09-09T15:34:23.670Z,994.43
2017-09-09T15:35:32.673Z,994.44
2017-09-09T15:36:42.243Z,994.4
2017-09-09T15:37:51.603Z,994.34
2017-09-09T15:39:00.735Z,994.33
2017-09-09T15:40:09.433Z,994.35
2017-09-09T15:41:18.406Z,994.32
2017-09-09T15:42:27.071Z,994.3
2017-09-09T15:43:36.043Z,994.32
2017-09-09T15:44:45.671Z,994.33
2017-09-09T15:45:54.350Z,994.36
2017-09-09T15:47:03.947Z,994.4
2017-09-09T15:48:12.623Z,994.41
2017-09-09T15:49:21.905Z,994.44
2017-09-09T15:50:30.577Z,994.5
2017-09-09T15:51:39.546Z,994.53
2017-09-09T15:52:48.529Z,994.55
2017-09-09T15:53:57.195Z,994.61
2017-09-09T15:55:06.160Z,994.59
2017-09-09T15:56:14.805Z,994.62
2017-09-09T15:57:23.787Z,994.63
2017-09-09T15:58:33.390Z,994.65
2017-09-09T15:59:42.364Z,994.65
2017-09-09T16:00:51.377Z,994.66
2017-09-09T16:02:00.345Z,994.71
2017-09-09T16:03:09.324Z,994.76
2017-09-09T16:04:17.987Z,994.73
2017-09-09T16:05:26.998Z,994.74
2017-09-09T16:06:35.974Z,994.73
2017-09-09T16:07:46.861Z,994.77
2017-09-09T16:08:56.157Z,994.76
2017-09-09T16:10:06.080Z,994.81
2017-09-09T16:11:14.746Z,994.81
2017-09-09T16:12:23.721Z,994.87
2017-09-09T16:13:32.715Z,994.89
2017-09-09T16:14:42.020Z,994.94
2017-09-09T16:15:51.008Z,994.93
2017-09-09T16:17:00.294Z,994.92
2017-09-09T16:18:09.614Z,994.96
2017-09-09T16:19:18.591Z,994.96
2017-09-09T16:20:27.588Z,994.97
2017-09-09T16:21:36.879Z,995
2017-09-09T16:22:45.544Z,994.96
2017-09-09T16:23:54.538Z,994.99
2017-09-09T16:25:03.525Z,995.02
2017-09-09T16:26:12.810Z,995.05
2017-09-09T16:27:21.469Z,995.03
2017-09-09T16:28:30.442Z,995.05
2017-09-09T16:29:40.053Z,995.03
2017-09-09T16:30:49.364Z,995.02
2017-09-09T16:31:58.655Z,995.01
2017-09-09T16:33:08.282Z,995
2017-09-09T16:34:17.583Z,995.02
2017-09-09T16:35:26.569Z,994.97
2017-09-09T16:36:35.231Z,995.03
2017-09-09T16:37:43.882Z,995.03
2017-09-09T16:38:52.867Z,995.02
2017-09-09T16:40:02.159Z,995.02
2017-09-09T16:41:11.448Z,995.03
2017-09-09T16:42:20.109Z,994.97
2017-09-09T16:43:29.074Z,994.97
2017-09-09T16:44:38.681Z,994.97
2017-09-09T16:45:47.651Z,994.97
2017-09-09T16:46:56.942Z,994.98
2017-09-09T16:48:05.900Z,995.03
2017-09-09T16:49:15.499Z,995.01
2017-09-09T16:50:24.496Z,995
2017-09-09T16:51:33.483Z,994.99
2017-09-09T16:52:42.471Z,995.05
2017-09-09T16:53:51.441Z,995.04
2017-09-09T16:55:00.729Z,995.05
2017-09-09T16:56:09.418Z,995.04
2017-09-09T16:57:19.019Z,995.04
2017-09-09T16:58:28.004Z,995.07
2017-09-09T16:59:37.001Z,995.13
2017-09-09T17:00:46.601Z,995.08
2017-09-09T17:01:55.587Z,995.07
2017-09-09T17:03:04.565Z,995.12
2017-09-09T17:04:13.860Z,995.11
2017-09-09T17:05:22.849Z,995.13
2017-09-09T17:06:32.154Z,995.15
2017-09-09T17:07:41.129Z,995.15
2017-09-09T17:08:50.406Z,995.14
2017-09-09T17:09:59.394Z,995.16
2017-09-09T17:11:08.046Z,995.15
2017-09-09T17:12:17.025Z,995.13
2017-09-09T17:13:25.995Z,995.15
2017-09-09T17:14:34.983Z,995.17
2017-09-09T17:15:43.956Z,995.14
2017-09-09T17:16:53.239Z,995.13
2017-09-09T17:18:02.549Z,995.18
2017-09-09T17:19:11.841Z,995.19
2017-09-09T17:20:21.015Z,995.21
2017-09-09T17:21:30.299Z,995.19
2017-09-09T17:22:39.595Z,995.2
2017-09-09T17:23:48.874Z,995.22
2017-09-09T17:24:57.856Z,995.22
2017-09-09T17:26:07.467Z,995.24
2017-09-09T17:27:16.484Z,995.21
2017-09-09T17:28:25.192Z,995.26
2017-09-09T17:29:33.849Z,995.25
2017-09-09T17:30:42.825Z,995.28
2017-09-09T17:31:51.997Z,995.28
2017-09-09T17:33:01.290Z,995.27
2017-09-09T17:34:09.952Z,995.28
2017-09-09T17:35:19.580Z,995.29
2017-09-09T17:36:28.547Z,995.35
2017-09-09T17:37:37.520Z,995.31
2017-09-09T17:38:46.173Z,995.33
2017-09-09T17:39:55.143Z,995.33
2017-09-09T17:41:03.805Z,995.32
2017-09-09T17:42:13.073Z,995.3
2017-09-09T17:43:22.066Z,995.34
2017-09-09T17:44:31.049Z,995.35
2017-09-09T17:45:40.644Z,995.38
2017-09-09T17:46:49.300Z,995.37
2017-09-09T17:47:58.586Z,995.4
2017-09-09T17:49:07.918Z,995.47
2017-09-09T17:50:17.225Z,995.45
2017-09-09T17:51:26.195Z,995.47
2017-09-09T17:52:35.481Z,995.51
2017-09-09T17:53:44.203Z,995.53
2017-09-09T17:54:53.177Z,995.53
2017-09-09T17:56:02.477Z,995.57
2017-09-09T17:57:11.917Z,995.57
2017-09-09T17:58:20.590Z,995.62
2017-09-09T17:59:30.184Z,995.59
2017-09-09T18:00:39.468Z,995.61
2017-09-09T18:01:48.447Z,995.66
2017-09-09T18:02:57.439Z,995.66
2017-09-09T18:04:06.422Z,995.67
2017-09-09T18:05:15.071Z,995.69
2017-09-09T18:06:24.678Z,995.67
2017-09-09T18:07:33.334Z,995.65
2017-09-09T18:08:42.939Z,995.67
2017-09-09T18:09:51.918Z,995.69
2017-09-09T18:11:00.571Z,995.68
2017-09-09T18:12:09.532Z,995.69
2017-09-09T18:13:19.478Z,995.66
2017-09-09T18:14:28.462Z,995.66
2017-09-09T18:15:37.436Z,995.66
2017-09-09T18:16:46.085Z,995.69
2017-09-09T18:17:54.734Z,995.74
2017-09-09T18:19:04.089Z,995.8
2017-09-09T18:20:13.379Z,995.75
2017-09-09T18:21:22.124Z,995.76
2017-09-09T18:22:31.501Z,995.78
2017-09-09T18:23:40.226Z,995.84
2017-09-09T18:24:49.229Z,995.84
2017-09-09T18:25:58.215Z,995.85
2017-09-09T18:27:07.501Z,995.89
2017-09-09T18:28:16.867Z,995.87
2017-09-09T18:29:25.840Z,995.93
2017-09-09T18:30:34.835Z,995.88
2017-09-09T18:31:43.812Z,995.87
2017-09-09T18:32:52.861Z,995.88
2017-09-09T18:34:02.147Z,995.88
2017-09-09T18:35:11.162Z,995.92
2017-09-09T18:36:20.451Z,995.99
2017-09-09T18:37:29.121Z,995.97
2017-09-09T18:38:39.059Z,995.98
2017-09-09T18:39:48.063Z,996.01
2017-09-09T18:40:57.738Z,996.07
2017-09-09T18:42:07.126Z,996.05
2017-09-09T18:43:16.432Z,996.06
2017-09-09T18:44:25.113Z,996.12
2017-09-09T18:45:34.409Z,996.13
2017-09-09T18:46:43.702Z,996.17
2017-09-09T18:47:53.009Z,996.22
2017-09-09T18:49:01.975Z,996.21
2017-09-09T18:50:10.972Z,996.3
2017-09-09T18:51:20.003Z,996.29
2017-09-09T18:52:28.653Z,996.29
2017-09-09T18:53:37.945Z,996.23
2017-09-09T18:54:47.318Z,996.28
2017-09-09T18:55:56.626Z,996.3
2017-09-09T18:57:06.248Z,996.32
2017-09-09T18:58:15.651Z,996.36
2017-09-09T18:59:24.646Z,996.42
2017-09-09T19:00:33.618Z,996.44
2017-09-09T19:01:42.382Z,996.45
2017-09-09T19:02:51.043Z,996.45
2017-09-09T19:04:00.041Z,996.48
2017-09-09T19:05:09.032Z,996.49
2017-09-09T19:06:18.071Z,996.48
2017-09-09T19:07:26.755Z,996.46
2017-09-09T19:08:35.827Z,996.46
2017-09-09T19:09:45.439Z,996.45
2017-09-09T19:10:54.758Z,996.49
2017-09-09T19:12:04.084Z,996.51
2017-09-09T19:13:13.470Z,996.5
2017-09-09T19:14:22.144Z,996.52
2017-09-09T19:15:31.131Z,996.55
2017-09-09T19:16:40.565Z,996.54
2017-09-09T19:17:50.196Z,996.61
2017-09-09T19:18:59.186Z,996.61
2017-09-09T19:20:08.204Z,996.61
2017-09-09T19:21:16.981Z,996.62
2017-09-09T19:22:26.319Z,996.61
2017-09-09T19:23:35.310Z,996.59
2017-09-09T19:24:44.606Z,996.62
2017-09-09T19:25:54.268Z,996.64
2017-09-09T19:27:04.186Z,996.62
2017-09-09T19:28:13.644Z,996.64
2017-09-09T19:29:22.349Z,996.64
2017-09-09T19:30:31.654Z,996.62
2017-09-09T19:31:40.630Z,996.61
2017-09-09T19:32:49.297Z,996.61
2017-09-09T19:33:58.253Z,996.63
2017-09-09T19:35:06.973Z,996.64
2017-09-09T19:36:16.637Z,996.61
2017-09-09T19:37:25.342Z,996.61
2017-09-09T19:38:34.002Z,996.62
2017-09-09T19:39:43.593Z,996.61
2017-09-09T19:40:52.248Z,996.63
2017-09-09T19:42:01.213Z,996.64
2017-09-09T19:43:09.900Z,996.64
2017-09-09T19:44:18.897Z,996.61
2017-09-09T19:45:27.954Z,996.6
2017-09-09T19:46:37.260Z,996.59
2017-09-09T19:47:46.543Z,996.61
2017-09-09T19:48:55.560Z,996.61
2017-09-09T19:50:04.209Z,996.62
2017-09-09T19:51:12.862Z,996.62
2017-09-09T19:52:21.839Z,996.7
2017-09-09T19:53:31.116Z,996.67
2017-09-09T19:54:40.726Z,996.63
2017-09-09T19:55:49.403Z,996.6
2017-09-09T19:56:58.447Z,996.64
2017-09-09T19:58:07.109Z,996.64
2017-09-09T19:59:16.716Z,996.69
2017-09-09T20:00:25.409Z,996.71
2017-09-09T20:01:34.923Z,996.75
2017-09-09T20:02:43.900Z,996.77
2017-09-09T20:03:52.890Z,996.77
2017-09-09T20:05:01.881Z,996.77
2017-09-09T20:06:11.235Z,996.81
2017-09-09T20:07:20.846Z,996.78
2017-09-09T20:08:29.549Z,996.84
2017-09-09T20:09:38.555Z,996.84
2017-09-09T20:10:47.537Z,996.84
2017-09-09T20:11:56.531Z,996.82
2017-09-09T20:13:05.514Z,996.86
2017-09-09T20:14:14.485Z,996.89
2017-09-09T20:15:23.175Z,996.87
2017-09-09T20:16:32.491Z,996.9
2017-09-09T20:17:41.553Z,996.93
2017-09-09T20:18:50.531Z,996.94
2017-09-09T20:19:59.502Z,996.94
2017-09-09T20:21:08.482Z,996.91
2017-09-09T20:22:18.097Z,996.93
2017-09-09T20:23:26.774Z,996.94
2017-09-09T20:24:36.075Z,996.96
2017-09-09T20:25:45.046Z,996.98
2017-09-09T20:26:54.074Z,996.99
2017-09-09T20:28:03.366Z,996.98
2017-09-09T20:29:12.365Z,996.97
2017-09-09T20:30:21.330Z,996.94
2017-09-09T20:31:30.625Z,996.97
2017-09-09T20:32:39.598Z,996.98
2017-09-09T20:33:48.314Z,996.97
2017-09-09T20:34:56.959Z,996.98
2017-09-09T20:36:05.921Z,996.99
2017-09-09T20:37:14.898Z,996.97
2017-09-09T20:38:23.556Z,996.99
2017-09-09T20:39:32.854Z,997
2017-09-09T20:40:41.832Z,996.99
2017-09-09T20:41:51.146Z,997.01
2017-09-09T20:43:00.765Z,997.01
2017-09-09T20:44:09.437Z,997.06
2017-09-09T20:45:18.093Z,997.09
2017-09-09T20:46:26.780Z,997.1
2017-09-09T20:47:35.755Z,997.12
2017-09-09T20:48:44.409Z,997.15
2017-09-09T20:49:53.389Z,997.17
2017-09-09T20:51:02.378Z,997.17
2017-09-09T20:52:11.709Z,997.23
2017-09-09T20:53:21.320Z,997.22
2017-09-09T20:54:30.041Z,997.22
2017-09-09T20:55:39.026Z,997.23
2017-09-09T20:56:47.992Z,997.25
2017-09-09T20:57:57.295Z,997.25
2017-09-09T20:59:05.980Z,997.29
2017-09-09T21:00:14.642Z,997.29
2017-09-09T21:01:24.254Z,997.3
2017-09-09T21:02:32.912Z,997.3
2017-09-09T21:03:42.545Z,997.31
2017-09-09T21:04:51.190Z,997.33
2017-09-09T21:05:59.857Z,997.32
2017-09-09T21:07:08.521Z,997.33
2017-09-09T21:08:18.436Z,997.34
2017-09-09T21:09:27.731Z,997.37
2017-09-09T21:10:36.396Z,997.33
2017-09-09T21:11:46.029Z,997.35
2017-09-09T21:12:55.009Z,997.36
2017-09-09T21:14:04.602Z,997.38
2017-09-09T21:15:13.907Z,997.39
2017-09-09T21:16:22.864Z,997.42
2017-09-09T21:17:31.929Z,997.4
2017-09-09T21:18:40.699Z,997.37
2017-09-09T21:19:50.005Z,997.4
2017-09-09T21:20:59.283Z,997.43
2017-09-09T21:22:08.259Z,997.41
2017-09-09T21:23:16.911Z,997.43
2017-09-09T21:24:25.898Z,997.41
2017-09-09T21:25:35.177Z,997.46
2017-09-09T21:26:43.842Z,997.45
2017-09-09T21:27:53.126Z,997.49
2017-09-09T21:29:01.775Z,997.49
2017-09-09T21:30:10.751Z,997.49
2017-09-09T21:31:20.666Z,997.54
2017-09-09T21:32:29.318Z,997.55
2017-09-09T21:33:38.289Z,997.57
2017-09-09T21:34:47.891Z,997.57
2017-09-09T21:35:57.173Z,997.55
2017-09-09T21:37:06.145Z,997.56
2017-09-09T21:38:15.124Z,997.59
2017-09-09T21:39:24.420Z,997.6
2017-09-09T21:40:33.433Z,997.59
2017-09-09T21:41:42.082Z,997.57
2017-09-09T21:42:51.049Z,997.63
2017-09-09T21:44:00.343Z,997.63
2017-09-09T21:45:09.929Z,997.64
2017-09-09T21:46:18.606Z,997.61
2017-09-09T21:47:28.229Z,997.63
2017-09-09T21:48:37.211Z,997.65
2017-09-09T21:49:45.863Z,997.66
2017-09-09T21:50:54.850Z,997.65
2017-09-09T21:52:05.067Z,997.66
2017-09-09T21:53:14.046Z,997.66
2017-09-09T21:54:23.028Z,997.69
2017-09-09T21:55:32.333Z,997.68
2017-09-09T21:56:41.007Z,997.65
2017-09-09T21:57:50.309Z,997.69
2017-09-09T21:58:59.922Z,997.7
2017-09-09T22:00:09.233Z,997.69
2017-09-09T22:01:17.909Z,997.72
2017-09-09T22:02:26.878Z,997.7
2017-09-09T22:03:36.170Z,997.73
2017-09-09T22:04:44.945Z,997.74
2017-09-09T22:05:53.608Z,997.72
2017-09-09T22:07:02.601Z,997.78
2017-09-09T22:08:11.265Z,997.71
2017-09-09T22:09:20.253Z,997.77
2017-09-09T22:10:29.224Z,997.8
2017-09-09T22:11:38.684Z,997.76
2017-09-09T22:12:47.437Z,997.75
2017-09-09T22:13:56.717Z,997.74
2017-09-09T22:15:07.091Z,997.74
2017-09-09T22:16:16.054Z,997.76
2017-09-09T22:17:25.763Z,997.78
2017-09-09T22:18:35.546Z,997.78
2017-09-09T22:19:45.187Z,997.79
2017-09-09T22:20:54.253Z,997.79
2017-09-09T22:22:03.585Z,997.79
2017-09-09T22:23:12.293Z,997.82
2017-09-09T22:24:21.050Z,997.81
2017-09-09T22:25:31.915Z,997.79
2017-09-09T22:26:41.093Z,997.79
2017-09-09T22:27:49.950Z,997.81
2017-09-09T22:28:58.722Z,997.85
2017-09-09T22:30:07.404Z,997.83
2017-09-09T22:31:17.738Z,997.81
2017-09-09T22:32:27.355Z,997.82
2017-09-09T22:33:36.342Z,997.87
2017-09-09T22:34:45.326Z,997.86
2017-09-09T22:35:54.289Z,997.82
2017-09-09T22:37:03.269Z,997.85
2017-09-09T22:38:12.314Z,997.9
2017-09-09T22:39:20.988Z,997.86
2017-09-09T22:40:30.590Z,997.86
2017-09-09T22:41:39.265Z,997.91
2017-09-09T22:42:48.582Z,997.96
2017-09-09T22:43:57.241Z,997.95
2017-09-09T22:45:05.899Z,997.95
2017-09-09T22:46:14.889Z,997.94
2017-09-09T22:47:24.878Z,997.93
2017-09-09T22:48:34.182Z,997.88
2017-09-09T22:49:43.152Z,997.91
2017-09-09T22:50:51.828Z,997.89
2017-09-09T22:52:00.517Z,997.89
2017-09-09T22:53:09.511Z,997.88
2017-09-09T22:54:18.814Z,997.85
2017-09-09T22:55:27.801Z,997.84
2017-09-09T22:56:37.083Z,997.86
2017-09-09T22:57:45.768Z,997.88
2017-09-09T22:58:55.063Z,997.86
2017-09-09T23:00:04.356Z,997.89
2017-09-09T23:01:13.975Z,997.87
2017-09-09T23:02:22.627Z,997.88
2017-09-09T23:03:31.936Z,997.9
2017-09-09T23:04:40.610Z,997.87
2017-09-09T23:05:49.892Z,997.88
2017-09-09T23:06:59.178Z,997.86
2017-09-09T23:08:08.467Z,997.82
2017-09-09T23:09:17.458Z,997.84
2017-09-09T23:10:26.769Z,997.85
2017-09-09T23:11:36.051Z,997.88
2017-09-09T23:12:45.027Z,997.89
2017-09-09T23:13:54.313Z,997.89
2017-09-09T23:15:02.982Z,997.86
2017-09-09T23:16:11.653Z,997.87
2017-09-09T23:17:20.317Z,997.85
2017-09-09T23:18:29.909Z,997.86
2017-09-09T23:19:40.138Z,997.82
2017-09-09T23:20:49.430Z,997.85
2017-09-09T23:21:58.077Z,997.78
2017-09-09T23:23:07.110Z,997.77
2017-09-09T23:24:15.767Z,997.83
2017-09-09T23:25:24.427Z,997.81
2017-09-09T23:26:33.148Z,997.85
2017-09-09T23:27:41.767Z,997.81
2017-09-09T23:28:50.799Z,997.82
2017-09-09T23:30:00.090Z,997.81
2017-09-09T23:31:09.380Z,997.81
2017-09-09T23:32:18.038Z,997.78
2017-09-09T23:33:27.349Z,997.81
2017-09-09T23:34:36.638Z,997.81
2017-09-09T23:35:45.593Z,997.84
2017-09-09T23:36:54.902Z,997.86
2017-09-09T23:38:03.577Z,997.86
2017-09-09T23:39:12.878Z,997.89
2017-09-09T23:40:22.160Z,997.84
2017-09-09T23:41:31.171Z,997.84
2017-09-09T23:42:39.825Z,997.93
2017-09-09T23:43:49.413Z,997.94
2017-09-09T23:44:58.704Z,997.9
2017-09-09T23:46:07.715Z,997.93
2017-09-09T23:47:16.718Z,997.88
2017-09-09T23:48:26.008Z,997.93
2017-09-09T23:49:34.998Z,997.87
2017-09-09T23:50:43.971Z,997.87
2017-09-09T23:51:52.631Z,997.9
2017-09-09T23:53:02.231Z,997.87
2017-09-09T23:54:11.209Z,997.91
2017-09-09T23:55:20.513Z,997.91
2017-09-09T23:56:29.479Z,997.92
2017-09-09T23:57:38.438Z,997.89
2017-09-09T23:58:47.099Z,997.96
2017-09-09T23:59:56.084Z,997.96
